sensor_id;sensor_type;location;lat;lon;timestamp;P1;durP1;ratioP1;P2;durP2;ratioP2
20421;SDS011;10370;53.102;18.034;2022-09-27T00:01:49;65.10;;;29.55;;
20421;SDS011;10370;53.102;18.034;2022-09-27T00:07:10;56.25;;;28.40;;
20421;SDS011;10370;53.102;18.034;2022-09-27T00:12:45;53.60;;;28.00;;
20421;SDS011;10370;53.102;18.034;2022-09-27T00:18:19;52.67;;;26.73;;
20421;SDS011;10370;53.102;18.034;2022-09-27T00:23:42;57.93;;;30.37;;
20421;SDS011;10370;53.102;18.034;2022-09-27T00:29:04;63.53;;;32.90;;
20421;SDS011;10370;53.102;18.034;2022-09-27T00:34:26;62.78;;;33.22;;
20421;SDS011;10370;53.102;18.034;2022-09-27T00:39:50;62.40;;;32.45;;
20421;SDS011;10370;53.102;18.034;2022-09-27T00:45:12;62.88;;;32.92;;
20421;SDS011;10370;53.102;18.034;2022-09-27T00:50:38;60.08;;;31.88;;
20421;SDS011;10370;53.102;18.034;2022-09-27T00:56:05;64.95;;;32.72;;
20421;SDS011;10370;53.102;18.034;2022-09-27T01:01:33;60.70;;;31.92;;
20421;SDS011;10370;53.102;18.034;2022-09-27T01:06:55;59.90;;;31.98;;
20421;SDS011;10370;53.102;18.034;2022-09-27T01:35:09;62.45;;;31.25;;
20421;SDS011;10370;53.102;18.034;2022-09-27T01:46:48;57.90;;;29.02;;
20421;SDS011;10370;53.102;18.034;2022-09-27T01:52:15;53.88;;;27.80;;
20421;SDS011;10370;53.102;18.034;2022-09-27T01:57:39;66.63;;;27.50;;
20421;SDS011;10370;53.102;18.034;2022-09-27T02:03:07;62.58;;;25.50;;
20421;SDS011;10370;53.102;18.034;2022-09-27T02:08:45;177.10;;;26.52;;
20421;SDS011;10370;53.102;18.034;2022-09-27T02:14:15;109.15;;;27.48;;
20421;SDS011;10370;53.102;18.034;2022-09-27T02:30:44;75.45;;;30.58;;
20421;SDS011;10370;53.102;18.034;2022-09-27T02:36:06;60.08;;;30.90;;
20421;SDS011;10370;53.102;18.034;2022-09-27T02:41:28;69.45;;;32.10;;
20421;SDS011;10370;53.102;18.034;2022-09-27T03:04:14;68.63;;;31.00;;
20421;SDS011;10370;53.102;18.034;2022-09-27T03:09:46;71.50;;;33.60;;
20421;SDS011;10370;53.102;18.034;2022-09-27T03:15:09;79.50;;;34.83;;
20421;SDS011;10370;53.102;18.034;2022-09-27T03:20:30;83.82;;;35.42;;
20421;SDS011;10370;53.102;18.034;2022-09-27T03:25:50;85.85;;;35.13;;
20421;SDS011;10370;53.102;18.034;2022-09-27T03:31:11;85.72;;;35.00;;
20421;SDS011;10370;53.102;18.034;2022-09-27T03:36:34;83.25;;;34.17;;
20421;SDS011;10370;53.102;18.034;2022-09-27T03:41:54;78.57;;;33.42;;
20421;SDS011;10370;53.102;18.034;2022-09-27T03:47:17;81.93;;;32.78;;
20421;SDS011;10370;53.102;18.034;2022-09-27T03:52:39;87.93;;;33.80;;
20421;SDS011;10370;53.102;18.034;2022-09-27T03:58:01;93.22;;;35.47;;
20421;SDS011;10370;53.102;18.034;2022-09-27T04:03:22;102.38;;;39.28;;
20421;SDS011;10370;53.102;18.034;2022-09-27T04:08:46;92.15;;;37.40;;
20421;SDS011;10370;53.102;18.034;2022-09-27T04:14:06;96.25;;;39.17;;
20421;SDS011;10370;53.102;18.034;2022-09-27T04:19:28;89.97;;;37.67;;
20421;SDS011;10370;53.102;18.034;2022-09-27T04:24:49;96.40;;;40.17;;
20421;SDS011;10370;53.102;18.034;2022-09-27T04:30:09;93.43;;;39.13;;
20421;SDS011;10370;53.102;18.034;2022-09-27T04:35:30;100.28;;;40.50;;
20421;SDS011;10370;53.102;18.034;2022-09-27T04:41:10;102.25;;;41.25;;
20421;SDS011;10370;53.102;18.034;2022-09-27T04:46:31;106.10;;;41.83;;
20421;SDS011;10370;53.102;18.034;2022-09-27T04:51:53;102.35;;;41.15;;
20421;SDS011;10370;53.102;18.034;2022-09-27T04:57:14;107.43;;;41.80;;
20421;SDS011;10370;53.102;18.034;2022-09-27T05:02:34;109.97;;;43.63;;
20421;SDS011;10370;53.102;18.034;2022-09-27T05:07:55;102.38;;;43.08;;
20421;SDS011;10370;53.102;18.034;2022-09-27T05:13:16;109.03;;;42.85;;
20421;SDS011;10370;53.102;18.034;2022-09-27T05:18:37;114.38;;;43.70;;
20421;SDS011;10370;53.102;18.034;2022-09-27T05:23:58;110.88;;;42.80;;
20421;SDS011;10370;53.102;18.034;2022-09-27T05:29:20;106.78;;;43.00;;
20421;SDS011;10370;53.102;18.034;2022-09-27T05:34:41;116.10;;;46.10;;
20421;SDS011;10370;53.102;18.034;2022-09-27T05:40:02;95.03;;;42.40;;
20421;SDS011;10370;53.102;18.034;2022-09-27T05:45:41;100.93;;;44.03;;
20421;SDS011;10370;53.102;18.034;2022-09-27T05:51:03;92.90;;;41.28;;
20421;SDS011;10370;53.102;18.034;2022-09-27T05:56:25;88.07;;;39.60;;
20421;SDS011;10370;53.102;18.034;2022-09-27T06:01:46;86.68;;;39.67;;
20421;SDS011;10370;53.102;18.034;2022-09-27T06:07:07;97.43;;;46.65;;
20421;SDS011;10370;53.102;18.034;2022-09-27T06:12:27;89.93;;;41.78;;
20421;SDS011;10370;53.102;18.034;2022-09-27T06:17:50;82.93;;;40.30;;
20421;SDS011;10370;53.102;18.034;2022-09-27T06:23:11;81.68;;;40.42;;
20421;SDS011;10370;53.102;18.034;2022-09-27T06:28:37;69.90;;;36.30;;
20421;SDS011;10370;53.102;18.034;2022-09-27T06:33:58;69.43;;;36.20;;
20421;SDS011;10370;53.102;18.034;2022-09-27T06:39:18;70.88;;;36.03;;
20421;SDS011;10370;53.102;18.034;2022-09-27T06:44:39;70.03;;;36.63;;
20421;SDS011;10370;53.102;18.034;2022-09-27T06:49:59;65.18;;;35.47;;
20421;SDS011;10370;53.102;18.034;2022-09-27T06:55:24;70.45;;;37.65;;
20421;SDS011;10370;53.102;18.034;2022-09-27T07:00:49;72.55;;;38.90;;
20421;SDS011;10370;53.102;18.034;2022-09-27T07:06:17;73.00;;;38.20;;
20421;SDS011;10370;53.102;18.034;2022-09-27T07:11:39;71.63;;;37.90;;
20421;SDS011;10370;53.102;18.034;2022-09-27T07:17:02;77.30;;;39.65;;
20421;SDS011;10370;53.102;18.034;2022-09-27T07:22:23;190.80;;;86.20;;
20421;SDS011;10370;53.102;18.034;2022-09-27T07:27:44;109.95;;;57.42;;
20421;SDS011;10370;53.102;18.034;2022-09-27T07:33:05;85.03;;;42.65;;
20421;SDS011;10370;53.102;18.034;2022-09-27T07:38:26;182.30;;;69.63;;
20421;SDS011;10370;53.102;18.034;2022-09-27T07:43:47;80.30;;;38.97;;
20421;SDS011;10370;53.102;18.034;2022-09-27T07:49:08;97.88;;;44.35;;
20421;SDS011;10370;53.102;18.034;2022-09-27T07:54:29;92.97;;;42.13;;
20421;SDS011;10370;53.102;18.034;2022-09-27T07:59:50;80.05;;;36.80;;
20421;SDS011;10370;53.102;18.034;2022-09-27T08:05:11;75.90;;;39.55;;
20421;SDS011;10370;53.102;18.034;2022-09-27T08:10:33;67.32;;;34.78;;
20421;SDS011;10370;53.102;18.034;2022-09-27T08:15:59;66.22;;;34.55;;
20421;SDS011;10370;53.102;18.034;2022-09-27T08:21:24;79.30;;;39.53;;
20421;SDS011;10370;53.102;18.034;2022-09-27T08:26:44;83.20;;;42.45;;
20421;SDS011;10370;53.102;18.034;2022-09-27T08:37:40;73.00;;;36.97;;
20421;SDS011;10370;53.102;18.034;2022-09-27T08:54:55;70.00;;;36.58;;
20421;SDS011;10370;53.102;18.034;2022-09-27T09:00:20;79.63;;;41.25;;
20421;SDS011;10370;53.102;18.034;2022-09-27T09:05:41;85.45;;;45.20;;
20421;SDS011;10370;53.102;18.034;2022-09-27T09:28:14;78.80;;;41.72;;
20421;SDS011;10370;53.102;18.034;2022-09-27T09:33:55;70.43;;;36.97;;
20421;SDS011;10370;53.102;18.034;2022-09-27T09:39:25;87.28;;;40.33;;
20421;SDS011;10370;53.102;18.034;2022-09-27T09:50:41;73.22;;;38.13;;
20421;SDS011;10370;53.102;18.034;2022-09-27T10:01:50;72.82;;;37.45;;
20421;SDS011;10370;53.102;18.034;2022-09-27T10:07:15;72.53;;;39.08;;
20421;SDS011;10370;53.102;18.034;2022-09-27T10:12:47;70.50;;;37.17;;
20421;SDS011;10370;53.102;18.034;2022-09-27T10:18:11;66.07;;;36.20;;
20421;SDS011;10370;53.102;18.034;2022-09-27T10:23:36;57.65;;;33.20;;
20421;SDS011;10370;53.102;18.034;2022-09-27T10:29:30;62.08;;;35.05;;
20421;SDS011;10370;53.102;18.034;2022-09-27T10:34:59;61.63;;;35.67;;
20421;SDS011;10370;53.102;18.034;2022-09-27T10:40:43;53.00;;;32.25;;
20421;SDS011;10370;53.102;18.034;2022-09-27T10:51:29;50.08;;;31.50;;
20421;SDS011;10370;53.102;18.034;2022-09-27T11:07:57;49.08;;;30.88;;
20421;SDS011;10370;53.102;18.034;2022-09-27T11:13:56;47.83;;;30.33;;
20421;SDS011;10370;53.102;18.034;2022-09-27T11:25:17;48.65;;;30.65;;
20421;SDS011;10370;53.102;18.034;2022-09-27T11:48:04;51.53;;;29.23;;
20421;SDS011;10370;53.102;18.034;2022-09-27T12:10:27;48.55;;;27.35;;
20421;SDS011;10370;53.102;18.034;2022-09-27T12:15:48;51.90;;;29.40;;
20421;SDS011;10370;53.102;18.034;2022-09-27T12:21:09;48.20;;;27.00;;
20421;SDS011;10370;53.102;18.034;2022-09-27T12:26:35;46.63;;;26.63;;
20421;SDS011;10370;53.102;18.034;2022-09-27T12:32:03;45.92;;;25.77;;
20421;SDS011;10370;53.102;18.034;2022-09-27T12:43:19;46.90;;;27.92;;
20421;SDS011;10370;53.102;18.034;2022-09-27T13:00:13;42.78;;;26.17;;
20421;SDS011;10370;53.102;18.034;2022-09-27T13:11:22;49.15;;;29.95;;
20421;SDS011;10370;53.102;18.034;2022-09-27T13:16:59;44.30;;;27.48;;
20421;SDS011;10370;53.102;18.034;2022-09-27T13:27:47;49.67;;;30.52;;
20421;SDS011;10370;53.102;18.034;2022-09-27T13:38:30;55.90;;;32.65;;
20421;SDS011;10370;53.102;18.034;2022-09-27T13:44:14;56.85;;;32.47;;
20421;SDS011;10370;53.102;18.034;2022-09-27T13:49:56;52.53;;;30.00;;
20421;SDS011;10370;53.102;18.034;2022-09-27T13:55:43;52.42;;;31.33;;
20421;SDS011;10370;53.102;18.034;2022-09-27T14:01:10;50.17;;;30.35;;
20421;SDS011;10370;53.102;18.034;2022-09-27T14:06:43;54.10;;;31.88;;
20421;SDS011;10370;53.102;18.034;2022-09-27T14:12:09;49.35;;;29.70;;
20421;SDS011;10370;53.102;18.034;2022-09-27T14:17:42;52.55;;;28.58;;
20421;SDS011;10370;53.102;18.034;2022-09-27T14:23:05;47.20;;;28.73;;
20421;SDS011;10370;53.102;18.034;2022-09-27T14:28:39;47.15;;;27.65;;
20421;SDS011;10370;53.102;18.034;2022-09-27T14:34:04;48.22;;;28.30;;
20421;SDS011;10370;53.102;18.034;2022-09-27T14:39:29;46.97;;;27.63;;
20421;SDS011;10370;53.102;18.034;2022-09-27T14:44:59;46.22;;;25.88;;
20421;SDS011;10370;53.102;18.034;2022-09-27T14:50:41;43.47;;;26.33;;
20421;SDS011;10370;53.102;18.034;2022-09-27T14:56:33;46.03;;;27.00;;
20421;SDS011;10370;53.102;18.034;2022-09-27T15:01:59;45.30;;;26.73;;
20421;SDS011;10370;53.102;18.034;2022-09-27T15:07:28;56.25;;;33.03;;
20421;SDS011;10370;53.102;18.034;2022-09-27T15:29:58;91.30;;;49.10;;
20421;SDS011;10370;53.102;18.034;2022-09-27T15:36:10;109.18;;;57.05;;
20421;SDS011;10370;53.102;18.034;2022-09-27T15:42:53;51.92;;;32.17;;
20421;SDS011;10370;53.102;18.034;2022-09-27T15:59:22;82.15;;;48.88;;
20421;SDS011;10370;53.102;18.034;2022-09-27T16:05:06;41.90;;;25.55;;
20421;SDS011;10370;53.102;18.034;2022-09-27T16:10:29;20.42;;;13.73;;
20421;SDS011;10370;53.102;18.034;2022-09-27T16:15:57;22.23;;;13.73;;
20421;SDS011;10370;53.102;18.034;2022-09-27T16:21:18;21.95;;;14.95;;
20421;SDS011;10370;53.102;18.034;2022-09-27T16:26:38;20.23;;;13.68;;
20421;SDS011;10370;53.102;18.034;2022-09-27T16:31:59;20.85;;;12.95;;
20421;SDS011;10370;53.102;18.034;2022-09-27T16:37:20;18.40;;;12.82;;
20421;SDS011;10370;53.102;18.034;2022-09-27T16:42:41;26.42;;;17.05;;
20421;SDS011;10370;53.102;18.034;2022-09-27T16:48:03;51.92;;;31.65;;
20421;SDS011;10370;53.102;18.034;2022-09-27T16:53:24;34.28;;;20.38;;
20421;SDS011;10370;53.102;18.034;2022-09-27T16:58:45;19.08;;;10.93;;
20421;SDS011;10370;53.102;18.034;2022-09-27T17:04:07;20.15;;;12.88;;
20421;SDS011;10370;53.102;18.034;2022-09-27T17:09:28;44.38;;;31.55;;
20421;SDS011;10370;53.102;18.034;2022-09-27T17:14:49;46.35;;;28.88;;
20421;SDS011;10370;53.102;18.034;2022-09-27T17:20:10;48.15;;;28.25;;
20421;SDS011;10370;53.102;18.034;2022-09-27T17:25:31;40.42;;;23.85;;
20421;SDS011;10370;53.102;18.034;2022-09-27T17:30:52;40.25;;;22.80;;
20421;SDS011;10370;53.102;18.034;2022-09-27T17:36:16;43.42;;;24.92;;
20421;SDS011;10370;53.102;18.034;2022-09-27T17:41:41;42.72;;;24.83;;
20421;SDS011;10370;53.102;18.034;2022-09-27T17:47:03;39.03;;;23.65;;
20421;SDS011;10370;53.102;18.034;2022-09-27T17:52:43;45.80;;;26.60;;
20421;SDS011;10370;53.102;18.034;2022-09-27T17:58:04;43.55;;;24.10;;
20421;SDS011;10370;53.102;18.034;2022-09-27T18:03:30;35.65;;;21.25;;
20421;SDS011;10370;53.102;18.034;2022-09-27T18:08:52;36.42;;;20.55;;
20421;SDS011;10370;53.102;18.034;2022-09-27T18:14:13;34.65;;;19.15;;
20421;SDS011;10370;53.102;18.034;2022-09-27T18:19:34;36.35;;;20.00;;
20421;SDS011;10370;53.102;18.034;2022-09-27T18:24:56;39.03;;;19.08;;
20421;SDS011;10370;53.102;18.034;2022-09-27T18:30:17;33.40;;;18.55;;
20421;SDS011;10370;53.102;18.034;2022-09-27T18:35:37;32.88;;;16.88;;
20421;SDS011;10370;53.102;18.034;2022-09-27T18:41:15;24.25;;;13.70;;
20421;SDS011;10370;53.102;18.034;2022-09-27T18:46:37;21.38;;;13.00;;
20421;SDS011;10370;53.102;18.034;2022-09-27T18:51:58;20.25;;;12.32;;
20421;SDS011;10370;53.102;18.034;2022-09-27T18:57:19;22.85;;;12.57;;
20421;SDS011;10370;53.102;18.034;2022-09-27T19:02:41;23.45;;;12.43;;
20421;SDS011;10370;53.102;18.034;2022-09-27T19:08:02;20.52;;;13.43;;
20421;SDS011;10370;53.102;18.034;2022-09-27T19:13:23;23.05;;;12.77;;
20421;SDS011;10370;53.102;18.034;2022-09-27T19:18:47;19.83;;;11.82;;
20421;SDS011;10370;53.102;18.034;2022-09-27T19:24:09;21.75;;;12.68;;
20421;SDS011;10370;53.102;18.034;2022-09-27T19:29:30;26.30;;;14.30;;
20421;SDS011;10370;53.102;18.034;2022-09-27T19:34:51;27.23;;;15.15;;
20421;SDS011;10370;53.102;18.034;2022-09-27T19:40:12;26.88;;;13.48;;
20421;SDS011;10370;53.102;18.034;2022-09-27T19:45:34;29.58;;;16.45;;
20421;SDS011;10370;53.102;18.034;2022-09-27T19:50:56;33.40;;;18.33;;
20421;SDS011;10370;53.102;18.034;2022-09-27T19:56:19;35.35;;;18.40;;
20421;SDS011;10370;53.102;18.034;2022-09-27T20:02:01;33.65;;;17.67;;
20421;SDS011;10370;53.102;18.034;2022-09-27T20:07:22;32.20;;;17.95;;
20421;SDS011;10370;53.102;18.034;2022-09-27T20:12:43;33.10;;;18.85;;
20421;SDS011;10370;53.102;18.034;2022-09-27T20:18:07;33.72;;;17.58;;
20421;SDS011;10370;53.102;18.034;2022-09-27T20:23:29;28.30;;;14.70;;
20421;SDS011;10370;53.102;18.034;2022-09-27T20:28:51;25.83;;;14.80;;
20421;SDS011;10370;53.102;18.034;2022-09-27T20:34:14;25.92;;;15.43;;
20421;SDS011;10370;53.102;18.034;2022-09-27T20:39:35;25.98;;;15.07;;
20421;SDS011;10370;53.102;18.034;2022-09-27T20:44:56;32.55;;;18.02;;
20421;SDS011;10370;53.102;18.034;2022-09-27T20:50:17;38.90;;;19.23;;
20421;SDS011;10370;53.102;18.034;2022-09-27T20:55:38;37.70;;;21.00;;
20421;SDS011;10370;53.102;18.034;2022-09-27T21:01:04;33.83;;;19.10;;
20421;SDS011;10370;53.102;18.034;2022-09-27T21:06:26;36.53;;;20.77;;
20421;SDS011;10370;53.102;18.034;2022-09-27T21:11:48;35.53;;;20.13;;
20421;SDS011;10370;53.102;18.034;2022-09-27T21:17:13;31.27;;;17.70;;
20421;SDS011;10370;53.102;18.034;2022-09-27T21:22:34;38.22;;;19.02;;
20421;SDS011;10370;53.102;18.034;2022-09-27T21:27:55;33.95;;;19.67;;
20421;SDS011;10370;53.102;18.034;2022-09-27T21:33:22;30.48;;;18.23;;
20421;SDS011;10370;53.102;18.034;2022-09-27T21:38:44;32.33;;;18.45;;
20421;SDS011;10370;53.102;18.034;2022-09-27T21:44:05;33.90;;;18.33;;
20421;SDS011;10370;53.102;18.034;2022-09-27T21:49:26;34.13;;;19.02;;
20421;SDS011;10370;53.102;18.034;2022-09-27T21:54:48;30.35;;;17.90;;
20421;SDS011;10370;53.102;18.034;2022-09-27T22:00:09;33.20;;;19.55;;
20421;SDS011;10370;53.102;18.034;2022-09-27T22:05:30;32.40;;;19.25;;
20421;SDS011;10370;53.102;18.034;2022-09-27T22:10:50;31.20;;;18.00;;
20421;SDS011;10370;53.102;18.034;2022-09-27T22:16:13;33.42;;;19.75;;
20421;SDS011;10370;53.102;18.034;2022-09-27T22:21:35;34.47;;;20.60;;
20421;SDS011;10370;53.102;18.034;2022-09-27T22:26:56;31.95;;;18.73;;
20421;SDS011;10370;53.102;18.034;2022-09-27T22:32:17;29.73;;;17.58;;
20421;SDS011;10370;53.102;18.034;2022-09-27T22:37:38;31.85;;;18.58;;
20421;SDS011;10370;53.102;18.034;2022-09-27T22:42:59;28.17;;;17.27;;
20421;SDS011;10370;53.102;18.034;2022-09-27T22:48:20;31.20;;;18.15;;
20421;SDS011;10370;53.102;18.034;2022-09-27T22:53:41;28.65;;;17.60;;
20421;SDS011;10370;53.102;18.034;2022-09-27T22:59:03;50.20;;;36.40;;
20421;SDS011;10370;53.102;18.034;2022-09-27T23:04:23;53.78;;;38.80;;
20421;SDS011;10370;53.102;18.034;2022-09-27T23:09:44;41.30;;;29.45;;
20421;SDS011;10370;53.102;18.034;2022-09-27T23:15:06;43.05;;;29.88;;
20421;SDS011;10370;53.102;18.034;2022-09-27T23:20:27;42.70;;;30.13;;
20421;SDS011;10370;53.102;18.034;2022-09-27T23:25:48;42.25;;;29.50;;
20421;SDS011;10370;53.102;18.034;2022-09-27T23:31:20;65.55;;;45.20;;
20421;SDS011;10370;53.102;18.034;2022-09-27T23:36:43;43.67;;;29.83;;
20421;SDS011;10370;53.102;18.034;2022-09-27T23:42:03;64.70;;;43.70;;
20421;SDS011;10370;53.102;18.034;2022-09-27T23:47:28;40.65;;;26.80;;
20421;SDS011;10370;53.102;18.034;2022-09-27T23:52:49;38.50;;;24.27;;
20421;SDS011;10370;53.102;18.034;2022-09-27T23:58:11;32.20;;;21.23;;
